createdAt,value
2022-11-14T00:01:31.311Z,76.43
2022-11-14T00:03:59.895Z,76.30
2022-11-14T00:06:28.478Z,79.90
2022-11-14T00:08:57.093Z,74.30
2022-11-14T00:11:27.210Z,82.93
2022-11-14T00:13:55.818Z,90.53
2022-11-14T00:16:24.396Z,86.53
2022-11-14T00:18:52.906Z,86.77
2022-11-14T00:21:21.473Z,86.53
2022-11-14T00:23:50.029Z,79.57
2022-11-14T00:26:18.557Z,74.63
2022-11-14T00:28:48.577Z,91.90
2022-11-14T00:31:17.131Z,91.30
2022-11-14T00:33:45.631Z,93.23
2022-11-14T00:36:14.266Z,89.43
2022-11-14T00:38:42.881Z,92.93
2022-11-14T00:41:11.425Z,94.80
2022-11-14T00:43:39.967Z,83.93
2022-11-14T00:46:09.937Z,92.93
2022-11-14T00:48:38.496Z,85.97
2022-11-14T00:51:07.110Z,85.60
2022-11-14T00:53:36.001Z,85.07
2022-11-14T00:56:04.674Z,95.00
2022-11-14T00:58:33.357Z,89.67
2022-11-14T01:01:02.408Z,92.87
2022-11-14T01:03:32.381Z,87.00
2022-11-14T01:06:05.022Z,96.67
2022-11-14T01:08:33.549Z,90.90
2022-11-14T01:11:02.158Z,99.47
2022-11-14T01:13:33.476Z,95.00
2022-11-14T01:16:02.494Z,93.47
2022-11-14T01:18:32.688Z,88.30
2022-11-14T01:21:01.325Z,88.03
2022-11-14T01:23:29.895Z,88.40
2022-11-14T01:26:02.029Z,101.00
2022-11-14T01:28:30.916Z,99.87
2022-11-14T01:31:07.996Z,99.80
2022-11-14T01:33:37.934Z,99.77
2022-11-14T01:36:06.935Z,98.13
2022-11-14T01:38:35.588Z,104.70
2022-11-14T01:41:04.413Z,95.53
2022-11-14T01:43:33.743Z,102.03
2022-11-14T01:46:03.991Z,106.30
2022-11-14T01:48:38.585Z,112.57
2022-11-14T01:51:14.705Z,109.70
2022-11-14T01:53:43.317Z,103.73
2022-11-14T01:56:12.695Z,103.03
2022-11-14T01:58:42.898Z,102.63
2022-11-14T02:01:11.503Z,114.57
2022-11-14T02:03:42.004Z,109.37
2022-11-14T02:06:11.370Z,96.23
2022-11-14T02:08:41.180Z,100.17
2022-11-14T02:11:11.284Z,101.87
2022-11-14T02:13:39.890Z,106.93
2022-11-14T02:16:08.728Z,97.87
2022-11-14T02:18:37.318Z,98.57
2022-11-14T02:21:07.458Z,96.27
2022-11-14T02:23:35.987Z,104.20
2022-11-14T02:26:04.585Z,99.77
2022-11-14T02:28:33.113Z,108.80
2022-11-14T02:31:01.654Z,104.20
2022-11-14T02:33:30.182Z,110.87
2022-11-14T02:35:58.928Z,102.37
2022-11-14T02:38:29.012Z,100.40
2022-11-14T02:40:57.749Z,103.37
2022-11-14T02:43:26.362Z,109.30
2022-11-14T02:45:54.881Z,100.73
2022-11-14T02:48:23.473Z,95.03
2022-11-14T02:50:52.028Z,100.43
2022-11-14T02:53:20.577Z,102.37
2022-11-14T02:55:50.544Z,101.10
2022-11-14T02:58:19.100Z,96.10
2022-11-14T03:01:13.763Z,104.17
2022-11-14T03:03:36.297Z,102.50
2022-11-14T03:06:05.192Z,95.63
2022-11-14T03:08:33.877Z,94.37
2022-11-14T03:11:07.218Z,90.57
2022-11-14T03:13:35.794Z,95.13
2022-11-14T03:16:07.842Z,93.17
2022-11-14T03:18:36.446Z,97.13
2022-11-14T03:21:08.962Z,95.97
2022-11-14T03:23:37.679Z,99.80
2022-11-14T03:26:08.379Z,93.30
2022-11-14T03:28:37.013Z,101.03
2022-11-14T03:31:05.750Z,86.70
2022-11-14T03:33:34.410Z,92.47
2022-11-14T03:36:02.988Z,96.33
2022-11-14T03:38:31.750Z,103.30
2022-11-14T03:41:00.593Z,97.50
2022-11-14T03:43:32.313Z,98.77
2022-11-14T03:46:01.116Z,92.83
2022-11-14T03:48:30.241Z,87.90
2022-11-14T03:50:59.076Z,101.50
2022-11-14T03:53:28.273Z,95.33
2022-11-14T03:55:56.822Z,100.90
2022-11-14T03:58:25.391Z,93.17
2022-11-14T04:00:56.530Z,94.50
2022-11-14T04:03:25.166Z,82.80
2022-11-14T04:05:53.711Z,89.57
2022-11-14T04:08:22.246Z,92.23
2022-11-14T04:10:51.002Z,104.83
2022-11-14T04:13:19.588Z,99.67
2022-11-14T04:15:48.303Z,94.93
2022-11-14T04:18:18.171Z,99.77
2022-11-14T04:20:46.751Z,105.57
2022-11-14T04:23:15.317Z,96.47
2022-11-14T04:25:45.062Z,101.07
2022-11-14T04:28:13.642Z,89.10
2022-11-14T04:30:42.367Z,97.10
2022-11-14T04:33:10.959Z,106.23
2022-11-14T04:35:40.861Z,104.20
2022-11-14T04:38:10.436Z,95.40
2022-11-14T04:40:39.005Z,99.03
2022-11-14T04:43:07.573Z,107.43
2022-11-14T04:45:36.217Z,112.03
2022-11-14T04:48:04.942Z,99.33
2022-11-14T04:50:33.489Z,102.27
2022-11-14T04:53:03.408Z,107.00
2022-11-14T04:55:31.966Z,101.83
2022-11-14T04:58:00.530Z,111.30
2022-11-14T05:00:29.179Z,101.37
2022-11-14T05:02:59.385Z,109.63
2022-11-14T05:05:28.013Z,107.90
2022-11-14T05:07:56.677Z,104.20
2022-11-14T05:10:26.656Z,108.03
2022-11-14T05:12:55.580Z,108.23
2022-11-14T05:15:24.224Z,109.80
2022-11-14T05:17:52.830Z,114.87
2022-11-14T05:20:21.356Z,106.10
2022-11-14T05:22:53.467Z,105.73
2022-11-14T05:25:22.016Z,115.13
2022-11-14T05:27:51.953Z,105.10
2022-11-14T05:30:20.629Z,110.80
2022-11-14T05:32:49.127Z,106.17
2022-11-14T05:35:17.833Z,102.60
2022-11-14T05:37:46.353Z,108.13
2022-11-14T05:40:16.974Z,116.00
2022-11-14T05:42:45.538Z,102.47
2022-11-14T05:45:15.601Z,104.73
2022-11-14T05:47:44.198Z,123.50
2022-11-14T05:50:12.973Z,111.43
2022-11-14T05:52:41.566Z,115.63
2022-11-14T05:55:10.793Z,125.10
2022-11-14T05:57:39.366Z,112.70
2022-11-14T06:00:09.262Z,102.33
2022-11-14T06:02:39.243Z,112.93
2022-11-14T06:05:08.350Z,114.80
2022-11-14T06:07:37.179Z,101.90
2022-11-14T06:10:06.189Z,95.47
2022-11-14T06:12:34.755Z,95.20
2022-11-14T06:15:03.323Z,112.23
2022-11-14T06:17:31.894Z,97.23
2022-11-14T06:20:01.854Z,104.87
2022-11-14T06:22:30.432Z,110.50
2022-11-14T06:24:59.030Z,102.70
2022-11-14T06:27:27.545Z,104.13
2022-11-14T06:29:56.149Z,103.20
2022-11-14T06:32:24.689Z,95.50
2022-11-14T06:34:53.324Z,102.60
2022-11-14T06:37:23.271Z,102.77
2022-11-14T06:39:51.792Z,112.20
2022-11-14T06:42:20.313Z,98.60
2022-11-14T06:44:48.857Z,100.77
2022-11-14T06:47:17.426Z,109.33
2022-11-14T06:49:46.109Z,107.70
2022-11-14T06:52:14.633Z,111.03
2022-11-14T06:54:44.755Z,99.07
2022-11-14T06:57:13.754Z,113.40
2022-11-14T06:59:42.350Z,113.80
2022-11-14T07:02:17.725Z,111.50
2022-11-14T07:04:50.162Z,111.03
2022-11-14T07:07:18.895Z,115.80
2022-11-14T07:09:48.927Z,108.83
2022-11-14T07:12:17.516Z,115.77
2022-11-14T07:14:46.066Z,108.17
2022-11-14T07:17:14.657Z,99.50
2022-11-14T07:19:43.236Z,109.03
2022-11-14T07:22:11.827Z,99.63
2022-11-14T07:24:40.405Z,102.17
2022-11-14T07:27:12.108Z,99.93
2022-11-14T07:29:40.739Z,92.83
2022-11-14T07:32:09.329Z,94.53
2022-11-14T07:34:37.878Z,102.07
2022-11-14T07:37:06.529Z,107.07
2022-11-14T07:39:35.058Z,118.53
2022-11-14T07:42:03.596Z,104.00
2022-11-14T07:44:33.534Z,105.87
2022-11-14T07:47:02.118Z,104.87
2022-11-14T07:49:30.679Z,95.30
2022-11-14T07:51:59.262Z,99.97
2022-11-14T07:54:27.832Z,98.47
2022-11-14T07:56:56.414Z,100.23
2022-11-14T07:59:24.974Z,98.63
2022-11-14T08:01:54.981Z,87.77
2022-11-14T08:04:23.530Z,98.83
2022-11-14T08:06:52.148Z,89.00
2022-11-14T08:09:20.701Z,102.13
2022-11-14T08:11:49.263Z,96.73
2022-11-14T08:14:17.837Z,99.00
2022-11-14T08:16:46.395Z,94.63
2022-11-14T08:19:16.774Z,92.60
2022-11-14T08:21:45.454Z,110.07
2022-11-14T08:24:14.041Z,104.73
2022-11-14T08:26:42.614Z,83.10
2022-11-14T08:29:11.201Z,91.50
2022-11-14T08:31:39.778Z,91.63
2022-11-14T08:34:08.466Z,90.07
2022-11-14T08:36:38.400Z,98.27
2022-11-14T08:39:07.211Z,83.57
2022-11-14T08:41:35.780Z,99.70
2022-11-14T08:44:04.335Z,98.87
2022-11-14T08:46:32.903Z,87.47
2022-11-14T08:49:01.533Z,88.40
2022-11-14T08:51:30.506Z,81.37
2022-11-14T08:54:00.433Z,89.33
2022-11-14T08:56:28.944Z,93.67
2022-11-14T08:58:57.529Z,86.07
2022-11-14T09:01:26.050Z,86.67
2022-11-14T09:03:59.572Z,103.57
2022-11-14T09:06:28.673Z,96.23
2022-11-14T09:08:57.271Z,95.37
2022-11-14T09:11:27.224Z,83.10
2022-11-14T09:13:55.791Z,86.47
2022-11-14T09:16:24.302Z,76.30
2022-11-14T09:18:52.930Z,83.73
2022-11-14T09:21:21.510Z,72.23
2022-11-14T09:23:50.146Z,79.37
2022-11-14T09:26:19.616Z,76.30
2022-11-14T09:28:49.769Z,81.90
2022-11-14T09:31:18.394Z,76.63
2022-11-14T09:33:46.993Z,74.40
2022-11-14T09:36:17.100Z,82.33
2022-11-14T09:38:45.858Z,74.30
2022-11-14T09:41:25.869Z,70.33
2022-11-14T09:44:13.215Z,71.53
2022-11-14T09:46:46.020Z,74.57
2022-11-14T09:49:30.847Z,75.57
2022-11-14T09:52:02.075Z,77.47
2022-11-14T09:54:33.886Z,73.57
2022-11-14T09:57:02.867Z,67.73
2022-11-14T09:59:32.835Z,64.90
2022-11-14T10:02:03.075Z,70.87
2022-11-14T10:04:40.694Z,61.90
2022-11-14T10:07:12.442Z,67.50
2022-11-14T10:09:47.975Z,61.37
2022-11-14T10:12:19.077Z,73.03
2022-11-14T10:15:28.600Z,60.33
2022-11-14T10:18:17.015Z,64.10
2022-11-14T10:20:48.255Z,59.00
2022-11-14T10:23:26.489Z,66.50
2022-11-14T10:25:57.455Z,68.00
2022-11-14T10:28:41.325Z,70.40
2022-11-14T10:31:17.684Z,63.27
2022-11-14T10:33:51.045Z,64.67
2022-11-14T10:36:23.424Z,58.67
2022-11-14T10:38:53.661Z,60.67
2022-11-14T10:41:49.891Z,61.67
2022-11-14T10:44:11.804Z,60.03
2022-11-14T10:46:42.875Z,56.30
2022-11-14T10:49:17.373Z,58.57
2022-11-14T10:51:47.402Z,59.87
2022-11-14T10:54:17.598Z,66.73
2022-11-14T10:56:49.302Z,56.83
2022-11-14T10:59:17.870Z,59.00
2022-11-14T11:01:54.238Z,60.17
2022-11-14T11:04:26.177Z,47.73
2022-11-14T11:06:55.658Z,57.33
2022-11-14T11:09:53.980Z,57.50
2022-11-14T11:12:24.232Z,58.67
2022-11-14T11:15:09.208Z,58.90
2022-11-14T11:17:43.130Z,67.37
2022-11-14T11:20:27.643Z,52.73
2022-11-14T11:23:04.053Z,55.60
2022-11-14T11:25:32.998Z,54.10
2022-11-14T11:28:08.918Z,47.83
2022-11-14T11:30:37.506Z,54.47
2022-11-14T11:33:24.610Z,53.83
2022-11-14T11:35:54.563Z,53.70
2022-11-14T11:38:23.132Z,54.70
2022-11-14T11:40:53.847Z,49.43
2022-11-14T11:43:40.339Z,46.37
2022-11-14T11:46:16.656Z,46.57
2022-11-14T11:48:47.279Z,52.03
2022-11-14T11:51:18.118Z,50.30
2022-11-14T11:53:48.105Z,50.03
2022-11-14T11:56:17.457Z,46.30
2022-11-14T11:58:47.496Z,48.07
2022-11-14T12:01:16.100Z,44.47
2022-11-14T12:03:48.455Z,53.27
2022-11-14T12:06:18.599Z,44.77
2022-11-14T12:08:54.676Z,47.90
2022-11-14T12:11:26.351Z,47.87
2022-11-14T12:14:16.583Z,40.83
2022-11-14T12:17:10.706Z,42.23
2022-11-14T12:20:24.041Z,44.23
2022-11-14T12:23:09.387Z,35.57
2022-11-14T12:25:43.938Z,42.60
2022-11-14T12:28:21.809Z,44.53
2022-11-14T12:30:51.624Z,39.40
2022-11-14T12:33:22.677Z,41.43
2022-11-14T12:35:52.510Z,37.00
2022-11-14T12:38:22.518Z,36.97
2022-11-14T12:40:51.983Z,33.33
2022-11-14T12:43:36.294Z,28.10
2022-11-14T12:46:09.774Z,31.03
2022-11-14T12:48:39.170Z,42.33
2022-11-14T12:51:23.763Z,35.07
2022-11-14T12:53:53.810Z,29.50
2022-11-14T12:56:53.814Z,35.20
2022-11-14T12:59:49.086Z,32.43
2022-11-14T13:02:53.300Z,34.60
2022-11-14T13:05:31.571Z,35.83
2022-11-14T13:08:08.895Z,34.80
2022-11-14T13:10:40.446Z,31.50
2022-11-14T13:13:27.938Z,30.10
2022-11-14T13:16:14.925Z,37.10
2022-11-14T13:19:14.254Z,35.40
2022-11-14T13:22:21.365Z,29.80
2022-11-14T13:25:17.579Z,29.83
2022-11-14T13:28:06.602Z,40.47
2022-11-14T13:31:20.088Z,30.77
2022-11-14T13:33:49.893Z,29.37
2022-11-14T13:36:22.588Z,32.00
2022-11-14T13:39:17.569Z,39.67
2022-11-14T13:42:09.703Z,67.70
2022-11-14T13:45:13.380Z,50.43
2022-11-14T13:48:12.930Z,35.30
2022-11-14T13:50:43.052Z,35.00
2022-11-14T13:53:15.023Z,30.27
2022-11-14T13:55:56.505Z,32.03
2022-11-14T13:58:43.560Z,28.83
2022-11-14T14:01:20.241Z,29.77
2022-11-14T14:03:57.814Z,28.67
2022-11-14T14:06:36.329Z,33.40
2022-11-14T14:09:22.779Z,29.50
2022-11-14T14:12:00.478Z,32.53
2022-11-14T14:14:45.787Z,28.47
2022-11-14T14:17:16.888Z,25.97
2022-11-14T14:19:51.785Z,28.90
2022-11-14T14:22:22.678Z,26.60
2022-11-14T14:24:58.000Z,29.00
2022-11-14T14:27:29.972Z,26.57
2022-11-14T14:30:03.763Z,32.37
2022-11-14T14:32:33.332Z,25.50
2022-11-14T14:35:01.948Z,33.70
2022-11-14T14:37:31.737Z,25.60
2022-11-14T14:40:00.976Z,26.10
2022-11-14T14:42:35.325Z,28.17
2022-11-14T14:45:04.233Z,28.77
2022-11-14T14:47:36.073Z,25.33
2022-11-14T14:50:05.571Z,31.53
2022-11-14T14:52:36.015Z,30.83
2022-11-14T14:55:06.570Z,33.50
2022-11-14T14:57:36.653Z,30.73
2022-11-14T15:00:07.185Z,33.70
2022-11-14T15:02:35.774Z,34.30
2022-11-14T15:05:04.404Z,37.70
2022-11-14T15:07:33.071Z,37.67
2022-11-14T15:10:03.198Z,36.80
2022-11-14T15:12:31.745Z,36.43
2022-11-14T15:15:01.618Z,39.77
2022-11-14T15:17:35.470Z,46.47
2022-11-14T15:20:04.644Z,35.37
2022-11-14T15:22:33.704Z,51.20
2022-11-14T15:25:22.722Z,48.33
2022-11-14T15:27:53.502Z,39.60
2022-11-14T15:30:25.531Z,37.77
2022-11-14T15:32:55.065Z,35.00
2022-11-14T15:35:29.935Z,31.47
2022-11-14T15:38:36.695Z,31.30
2022-11-14T15:41:19.049Z,34.93
2022-11-14T15:43:52.992Z,29.10
2022-11-14T15:46:43.029Z,34.80
2022-11-14T15:49:20.996Z,41.43
2022-11-14T15:51:52.082Z,62.80
2022-11-14T15:54:28.462Z,64.13
2022-11-14T15:56:58.357Z,52.73
2022-11-14T15:59:27.451Z,48.93
2022-11-14T16:02:00.350Z,43.47
2022-11-14T16:04:31.995Z,41.60
2022-11-14T16:07:00.349Z,40.80
2022-11-14T16:09:28.750Z,48.13
2022-11-14T16:11:57.055Z,41.13
2022-11-14T16:14:25.353Z,33.83
2022-11-14T16:16:53.639Z,35.70
2022-11-14T16:19:23.286Z,33.23
2022-11-14T16:21:51.593Z,37.13
2022-11-14T16:24:20.903Z,34.93
2022-11-14T16:26:49.472Z,31.33
2022-11-14T16:29:17.856Z,38.00
2022-11-14T16:31:47.494Z,37.17
2022-11-14T16:34:19.401Z,37.90
2022-11-14T16:36:50.967Z,40.77
2022-11-14T16:39:19.335Z,44.87
2022-11-14T16:41:47.594Z,36.73
2022-11-14T16:44:17.240Z,66.40
2022-11-14T16:46:45.798Z,66.83
2022-11-14T16:49:16.136Z,67.90
2022-11-14T16:51:49.364Z,57.87
2022-11-14T16:54:20.123Z,57.33
2022-11-14T16:56:48.542Z,62.37
2022-11-14T16:59:16.897Z,51.23
2022-11-14T17:01:46.102Z,58.07
2022-11-14T17:04:14.455Z,45.47
2022-11-14T17:06:42.764Z,48.20
2022-11-14T17:09:13.328Z,55.23
2022-11-14T17:11:44.633Z,56.23
2022-11-14T17:14:12.921Z,51.27
2022-11-14T17:16:41.209Z,43.10
2022-11-14T17:19:09.531Z,51.53
2022-11-14T17:21:37.811Z,44.70
2022-11-14T17:24:07.030Z,39.20
2022-11-14T17:26:36.640Z,50.57
2022-11-14T17:29:06.566Z,44.00
2022-11-14T17:31:37.937Z,46.40
2022-11-14T17:34:09.571Z,46.13
2022-11-14T17:36:37.865Z,53.43
2022-11-14T17:39:06.235Z,61.97
2022-11-14T17:41:35.218Z,56.73
2022-11-14T17:44:05.086Z,51.93
2022-11-14T17:46:33.366Z,57.03
2022-11-14T17:49:01.893Z,54.77
2022-11-14T17:51:30.322Z,61.70
2022-11-14T17:53:58.574Z,62.20
2022-11-14T17:56:28.162Z,56.70
2022-11-14T17:58:56.509Z,56.00
2022-11-14T18:01:26.410Z,47.27
2022-11-14T18:03:54.808Z,48.27
2022-11-14T18:06:24.321Z,52.37
2022-11-14T18:08:52.654Z,50.70
2022-11-14T18:11:21.105Z,51.63
2022-11-14T18:13:49.433Z,49.97
2022-11-14T18:16:19.180Z,44.00
2022-11-14T18:18:48.853Z,40.80
2022-11-14T18:21:18.725Z,37.07
2022-11-14T18:23:51.941Z,45.70
2022-11-14T18:26:21.094Z,40.63
2022-11-14T18:28:49.792Z,36.60
2022-11-14T18:31:18.152Z,44.10
2022-11-14T18:33:47.820Z,39.03
2022-11-14T18:36:16.051Z,38.30
2022-11-14T18:38:44.981Z,40.10
2022-11-14T18:41:15.246Z,37.30
2022-11-14T18:43:44.482Z,40.00
2022-11-14T18:46:14.941Z,39.87
2022-11-14T18:48:45.205Z,35.73
2022-11-14T18:51:17.470Z,39.67
2022-11-14T18:53:45.805Z,43.40
2022-11-14T18:56:16.186Z,47.33
2022-11-14T18:58:45.192Z,40.07
2022-11-14T19:01:13.820Z,42.20
2022-11-14T19:03:42.145Z,37.37
2022-11-14T19:06:14.061Z,41.93
2022-11-14T19:08:42.449Z,41.90
2022-11-14T19:11:32.687Z,38.83
2022-11-14T19:14:03.213Z,41.77
2022-11-14T19:16:32.238Z,45.67
2022-11-14T19:19:00.689Z,35.03
2022-11-14T19:21:30.413Z,39.43
2022-11-14T19:23:59.501Z,38.53
2022-11-14T19:26:27.969Z,42.13
2022-11-14T19:28:56.425Z,36.13
2022-11-14T19:31:25.135Z,37.70
2022-11-14T19:33:53.916Z,72.07
2022-11-14T19:36:52.703Z,42.43
2022-11-14T19:39:14.237Z,39.90
2022-11-14T19:41:42.622Z,36.20
2022-11-14T19:44:12.503Z,60.13
2022-11-14T19:46:47.069Z,41.53
2022-11-14T19:49:15.973Z,39.83
2022-11-14T19:51:44.256Z,40.37
2022-11-14T19:54:14.347Z,40.73
2022-11-14T19:56:42.667Z,59.20
2022-11-14T19:59:14.337Z,51.47
2022-11-14T20:01:43.806Z,55.27
2022-11-14T20:04:13.513Z,57.27
2022-11-14T20:06:42.286Z,51.10
2022-11-14T20:09:11.266Z,49.07
2022-11-14T20:11:41.033Z,54.40
2022-11-14T20:14:10.843Z,54.87
2022-11-14T20:16:39.246Z,46.47
2022-11-14T20:19:07.678Z,47.20
2022-11-14T20:21:36.110Z,47.00
2022-11-14T20:24:05.130Z,52.97
2022-11-14T20:26:33.467Z,48.27
2022-11-14T20:29:04.072Z,53.23
2022-11-14T20:31:32.588Z,49.20
2022-11-14T20:34:01.187Z,57.00
2022-11-14T20:36:50.013Z,44.90
2022-11-14T20:39:17.937Z,40.93
2022-11-14T20:41:46.374Z,46.00
2022-11-14T20:44:16.136Z,43.43
2022-11-14T20:46:44.489Z,41.40
2022-11-14T20:49:13.111Z,40.63
2022-11-14T20:51:41.429Z,39.87
2022-11-14T20:54:10.229Z,44.50
2022-11-14T20:56:38.580Z,47.27
2022-11-14T20:59:08.758Z,45.30
2022-11-14T21:01:43.424Z,41.23
2022-11-14T21:04:12.264Z,44.13
2022-11-14T21:06:41.273Z,45.57
2022-11-14T21:09:10.369Z,53.53
2022-11-14T21:11:38.678Z,40.57
2022-11-14T21:14:08.993Z,43.67
2022-11-14T21:16:39.815Z,44.60
2022-11-14T21:19:08.193Z,45.70
2022-11-14T21:21:37.010Z,47.57
2022-11-14T21:24:05.910Z,38.20
2022-11-14T21:26:35.444Z,42.33
2022-11-14T21:29:05.547Z,45.70
2022-11-14T21:31:35.133Z,42.47
2022-11-14T21:34:06.807Z,45.47
2022-11-14T21:36:44.766Z,37.87
2022-11-14T21:39:16.153Z,41.77
2022-11-14T21:41:45.122Z,45.40
2022-11-14T21:44:14.789Z,45.43
2022-11-14T21:46:43.242Z,46.03
2022-11-14T21:49:13.102Z,40.37
2022-11-14T21:51:41.458Z,53.10
2022-11-14T21:54:10.453Z,50.80
2022-11-14T21:56:38.807Z,45.97
2022-11-14T21:59:15.272Z,52.27
2022-11-14T22:02:03.411Z,57.40
2022-11-14T22:04:39.310Z,56.63
2022-11-14T22:07:08.876Z,47.10
2022-11-14T22:09:42.517Z,44.87
2022-11-14T22:12:13.334Z,39.40
2022-11-14T22:14:41.581Z,43.43
2022-11-14T22:17:09.861Z,39.10
2022-11-14T22:19:39.578Z,40.27
2022-11-14T22:22:07.886Z,46.90
2022-11-14T22:24:36.354Z,40.00
2022-11-14T22:27:04.748Z,33.13
2022-11-14T22:29:33.025Z,40.77
2022-11-14T22:32:01.334Z,37.17
2022-11-14T22:34:29.637Z,43.50
2022-11-14T22:36:59.473Z,43.47
2022-11-14T22:39:27.721Z,45.33
2022-11-14T22:41:56.038Z,38.00
2022-11-14T22:44:24.301Z,44.40
2022-11-14T22:46:52.618Z,49.00
2022-11-14T22:49:21.421Z,41.93
2022-11-14T22:51:49.759Z,41.77
2022-11-14T22:54:20.429Z,34.37
2022-11-14T22:56:48.838Z,38.53
2022-11-14T22:59:17.168Z,34.53
2022-11-14T23:01:45.661Z,41.23
2022-11-14T23:04:13.990Z,42.97
2022-11-14T23:06:42.324Z,40.07
2022-11-14T23:09:11.346Z,48.17
2022-11-14T23:11:41.082Z,35.27
2022-11-14T23:14:10.307Z,38.53
2022-11-14T23:16:38.608Z,44.30
2022-11-14T23:19:06.832Z,37.50
2022-11-14T23:21:37.095Z,36.80
2022-11-14T23:24:08.386Z,44.70
2022-11-14T23:26:36.652Z,37.77
2022-11-14T23:29:06.323Z,36.50
2022-11-14T23:31:34.617Z,35.30
2022-11-14T23:34:02.841Z,42.80
2022-11-14T23:36:31.102Z,38.37
2022-11-14T23:38:59.433Z,29.77
2022-11-14T23:41:27.742Z,42.47
2022-11-14T23:43:56.450Z,34.77
2022-11-14T23:46:26.748Z,41.77
2022-11-14T23:48:55.263Z,41.83
2022-11-14T23:51:23.562Z,37.00
2022-11-14T23:53:52.298Z,39.63
2022-11-14T23:56:20.577Z,39.03
2022-11-14T23:58:48.819Z,34.80
